Time;durP1;ratioP1;P1;durP2;ratioP2;P2;SDS_P1;SDS_P2;PMS_P1;PMS_P2;Temp;Humidity;BMP_temperature;BMP_pressure;BME280_temperature;BME280_humidity;BME280_pressure;Samples;Min_cycle;Max_cycle;Signal;HPM_P1;HPM_P2
2022/10/27 00:00:33;;;;;;;7.18;3.63;;;;;;;9.65;70.97;100328.06;4906780;29;20035;-91
2022/10/27 00:02:58;;;;;;;10.88;4.68;;;;;;;9.52;71.19;100321.09;4910956;29;20031;-89
2022/10/27 00:05:24;;;;;;;8.02;4.60;;;;;;;9.50;70.39;100310.63;4899046;29;20130;-90
2022/10/27 00:07:49;;;;;;;9.88;4.22;;;;;;;9.44;70.81;100311.56;4919747;29;20046;-90
2022/10/27 00:10:15;;;;;;;10.70;4.80;;;;;;;9.71;70.33;100332.50;4913304;29;20031;-90
2022/10/27 00:12:40;;;;;;;9.45;4.47;;;;;;;9.63;70.05;100312.22;4893871;29;20027;-90
2022/10/27 00:15:06;;;;;;;7.80;4.25;;;;;;;9.79;69.32;100312.50;4911772;29;20570;-92
2022/10/27 00:17:32;;;;;;;11.60;4.50;;;;;;;10.03;69.18;100323.97;4922359;29;20498;-90
2022/10/27 00:19:57;;;;;;;11.95;4.88;;;;;;;9.91;69.36;100311.38;4921300;29;20027;-90
2022/10/27 00:22:23;;;;;;;8.27;4.00;;;;;;;9.80;69.90;100312.25;4905772;29;20031;-91
2022/10/27 00:24:48;;;;;;;6.43;3.85;;;;;;;9.74;69.90;100307.03;4898599;29;20039;-90
2022/10/27 00:27:14;;;;;;;6.47;3.83;;;;;;;9.68;69.70;100306.91;4911243;29;20031;-91
2022/10/27 00:29:40;;;;;;;13.55;4.22;;;;;;;9.59;70.02;100297.59;4920872;29;20114;-91
2022/10/27 00:32:05;;;;;;;7.75;3.75;;;;;;;9.72;70.11;100326.09;4914492;29;20539;-90
2022/10/27 00:34:31;;;;;;;8.27;3.53;;;;;;;9.55;70.42;100304.50;4900734;29;20036;-91
2022/10/27 00:36:56;;;;;;;5.65;3.30;;;;;;;9.64;70.05;100321.88;4904483;29;20028;-91
2022/10/27 00:39:22;;;;;;;6.18;3.33;;;;;;;9.58;70.52;100319.34;4913623;29;20121;-91
2022/10/27 00:41:47;;;;;;;5.38;3.10;;;;;;;9.58;70.54;100314.78;4907479;29;20482;-91
2022/10/27 00:44:32;;;;;;;5.40;3.42;;;;;;;9.44;70.38;100300.81;4898952;29;20028;-90
2022/10/27 00:47:08;;;;;;;10.40;3.70;;;;;;;9.58;69.52;100298.66;4934193;29;20414;-91
2022/10/27 00:49:45;;;;;;;5.80;2.80;;;;;;;9.56;70.53;100313.38;4915841;29;20422;-90
2022/10/27 00:52:34;;;;;;;6.95;3.65;;;;;;;9.59;70.70;100321.81;4930550;29;20565;-91
2022/10/27 00:55:06;;;;;;;4.70;3.30;;;;;;;9.55;70.48;100311.78;4927790;29;20035;-91
2022/10/27 00:57:31;;;;;;;5.60;3.40;;;;;;;9.58;70.14;100303.22;4910313;29;20475;-91
2022/10/27 00:59:57;;;;;;;5.70;3.60;;;;;;;9.59;70.32;100327.19;4906977;29;20023;-90
2022/10/27 01:02:23;;;;;;;8.77;3.83;;;;;;;9.42;70.53;100308.28;4921688;29;20039;-91
2022/10/27 01:04:52;;;;;;;5.25;3.20;;;;;;;9.44;70.25;100308.88;4902284;29;20042;-91
2022/10/27 01:07:18;;;;;;;4.13;2.85;;;;;;;9.45;70.67;100323.94;4913572;29;20038;-90
2022/10/27 01:09:43;;;;;;;6.88;3.25;;;;;;;9.34;70.65;100305.97;4903379;29;20406;-91
2022/10/27 01:12:09;;;;;;;5.10;3.20;;;;;;;9.33;70.73;100308.91;4911710;29;20035;-91
2022/10/27 01:14:34;;;;;;;5.75;2.72;;;;;;;9.43;70.82;100326.03;4906174;29;20034;-90
2022/10/27 01:17:09;;;;;;;7.65;3.40;;;;;;;9.48;70.74;100330.69;4898324;29;20019;-90
2022/10/27 01:20:13;;;;;;;7.05;3.42;;;;;;;9.46;70.68;100330.13;4943808;29;20047;-90
2022/10/27 01:22:44;;;;;;;8.23;3.60;;;;;;;9.46;70.52;100328.28;4939185;29;20035;-90
2022/10/27 01:25:34;;;;;;;6.32;3.30;;;;;;;9.38;70.70;100328.63;4944334;29;20035;-90
2022/10/27 01:28:12;;;;;;;5.30;3.03;;;;;;;9.36;71.19;100338.81;4951359;29;20039;-90
2022/10/27 01:31:05;;;;;;;6.40;3.40;;;;;;;9.37;70.87;100327.00;4942334;29;20035;-90
2022/10/27 01:33:47;;;;;;;6.95;3.47;;;;;;;9.43;70.74;100336.78;4944043;29;20027;-90
2022/10/27 01:36:22;;;;;;;11.63;3.45;;;;;;;9.42;70.90;100345.09;4941775;29;20063;-90
2022/10/27 01:38:55;;;;;;;7.80;3.72;;;;;;;9.36;71.03;100336.13;4908400;29;20035;-91
2022/10/27 01:41:26;;;;;;;8.18;4.25;;;;;;;9.38;70.81;100343.91;4907268;29;20114;-90
2022/10/27 01:43:53;;;;;;;4.38;3.35;;;;;;;9.27;70.93;100332.16;4905353;29;20034;-90
2022/10/27 01:46:19;;;;;;;7.30;3.65;;;;;;;9.17;71.15;100315.81;4920226;29;20067;-90
2022/10/27 01:48:44;;;;;;;6.97;3.22;;;;;;;9.16;71.18;100315.00;4898674;29;20602;-90
2022/10/27 01:51:13;;;;;;;5.22;3.10;;;;;;;9.18;71.43;100336.25;4898428;29;20031;-90
2022/10/27 01:53:44;;;;;;;7.75;4.00;;;;;;;9.14;71.04;100335.91;4900132;29;20028;-91
2022/10/27 01:56:14;;;;;;;8.10;3.78;;;;;;;9.20;70.49;100356.47;4912248;29;20078;-90
2022/10/27 01:59:10;;;;;;;6.00;3.72;;;;;;;9.14;71.17;100349.34;4925833;29;20038;-91
2022/10/27 02:01:38;;;;;;;7.43;4.22;;;;;;;9.00;71.38;100348.75;4938130;29;20031;-91
2022/10/27 02:04:31;;;;;;;5.75;3.58;;;;;;;9.09;71.37;100360.78;4938284;29;20038;-91
2022/10/27 02:07:05;;;;;;;5.90;3.60;;;;;;;9.00;71.11;100346.06;4938706;29;20063;-91
2022/10/27 02:09:39;;;;;;;10.45;3.40;;;;;;;9.15;70.33;100345.63;4908990;29;20071;-90
2022/10/27 02:12:08;;;;;;;8.75;3.35;;;;;;;9.28;69.93;100347.22;4919591;29;20032;-91
2022/10/27 02:14:34;;;;;;;8.25;3.50;;;;;;;9.16;70.18;100357.16;4897487;29;20031;-90
2022/10/27 02:17:00;;;;;;;12.60;4.38;;;;;;;9.10;70.46;100348.16;4899722;29;20035;-90
2022/10/27 02:19:32;;;;;;;10.98;4.40;;;;;;;9.08;70.78;100361.84;4924669;29;20047;-91
2022/10/27 02:21:58;;;;;;;11.07;4.05;;;;;;;9.09;70.61;100371.53;4917839;29;20024;-90
2022/10/27 02:24:24;;;;;;;13.05;4.28;;;;;;;9.00;70.96;100362.19;4899609;29;20027;-91
2022/10/27 02:27:28;;;;;;;14.25;3.67;;;;;;;9.14;70.55;100375.41;4897631;29;20028;-91
2022/10/27 02:29:55;;;;;;;7.97;4.07;;;;;;;9.02;71.02;100367.31;4934284;29;20508;-91
2022/10/27 02:32:21;;;;;;;7.35;3.20;;;;;;;9.16;71.03;100390.22;4929373;29;20048;-91
2022/10/27 02:34:46;;;;;;;6.45;3.67;;;;;;;9.09;71.10;100381.47;4898058;29;20027;-90
2022/10/27 02:37:20;;;;;;;8.80;3.78;;;;;;;9.07;70.91;100380.88;4904723;29;20027;-90
2022/10/27 02:39:45;;;;;;;8.65;3.70;;;;;;;9.18;71.01;100385.44;4920749;29;20569;-91
2022/10/27 02:42:11;;;;;;;7.20;3.63;;;;;;;9.15;70.44;100379.69;4918778;29;20036;-91
2022/10/27 02:44:36;;;;;;;11.93;4.07;;;;;;;9.26;70.45;100392.34;4925133;29;20031;-91
2022/10/27 02:47:02;;;;;;;5.00;3.22;;;;;;;9.20;70.16;100379.84;4917227;29;20035;-90
2022/10/27 02:49:27;;;;;;;5.43;3.10;;;;;;;9.10;70.64;100377.72;4920317;29;20122;-91
2022/10/27 02:51:53;;;;;;;7.63;3.80;;;;;;;9.18;70.44;100384.63;4925536;29;20050;-90
2022/10/27 02:54:18;;;;;;;5.03;3.47;;;;;;;9.19;70.66;100375.50;4892981;29;20121;-91
2022/10/27 02:56:44;;;;;;;6.80;4.05;;;;;;;9.17;70.68;100385.66;4912437;29;20397;-92
2022/10/27 02:59:09;;;;;;;6.68;3.10;;;;;;;9.13;70.73;100379.97;4908257;29;20027;-90
2022/10/27 03:01:35;;;;;;;6.72;3.70;;;;;;;9.08;70.44;100367.19;4896951;29;20060;-91
2022/10/27 03:04:00;;;;;;;7.22;3.63;;;;;;;9.07;70.56;100375.53;4912742;29;20083;-90
2022/10/27 03:06:26;;;;;;;10.82;3.90;;;;;;;8.95;70.68;100380.88;4892067;29;20019;-91
2022/10/27 03:08:51;;;;;;;7.53;3.58;;;;;;;9.04;70.70;100400.97;4910407;29;20027;-91
2022/10/27 03:11:17;;;;;;;8.13;3.70;;;;;;;8.94;70.88;100389.97;4905455;29;20024;-91
2022/10/27 03:13:42;;;;;;;7.32;3.83;;;;;;;9.01;70.54;100404.13;4907802;29;20085;-91
2022/10/27 03:16:08;;;;;;;6.70;3.33;;;;;;;9.20;69.74;100401.34;4909063;29;20027;-90
2022/10/27 03:18:33;;;;;;;15.05;3.80;;;;;;;9.15;70.14;100393.13;4907590;29;20209;-91
2022/10/27 03:20:59;;;;;;;6.40;3.72;;;;;;;9.13;70.80;100400.63;4916041;29;20047;-91
2022/10/27 03:23:24;;;;;;;8.35;3.70;;;;;;;9.19;70.31;100402.38;4897007;29;20024;-91
2022/10/27 03:25:50;;;;;;;8.90;3.55;;;;;;;9.09;70.34;100398.41;4916289;29;20042;-91
2022/10/27 03:28:16;;;;;;;5.80;3.90;;;;;;;9.17;70.51;100407.16;4918313;29;20023;-91
2022/10/27 03:30:41;;;;;;;6.82;3.58;;;;;;;9.19;70.32;100421.19;4916577;29;20038;-91
2022/10/27 03:33:07;;;;;;;7.68;3.83;;;;;;;9.14;69.88;100410.31;4918393;29;20027;-91
2022/10/27 03:35:32;;;;;;;7.60;3.47;;;;;;;9.16;70.22;100408.22;4906696;29;20114;-90
2022/10/27 03:37:58;;;;;;;6.72;3.70;;;;;;;9.13;70.34;100401.44;4938530;29;20030;-91
2022/10/27 03:40:24;;;;;;;7.60;3.72;;;;;;;8.99;70.25;100405.41;4922766;29;20019;-90
2022/10/27 03:42:50;;;;;;;9.60;3.67;;;;;;;9.01;70.16;100406.00;4907114;29;20128;-90
2022/10/27 03:45:15;;;;;;;10.00;4.93;;;;;;;8.87;70.71;100398.16;4907313;29;20498;-91
2022/10/27 03:47:42;;;;;;;6.78;3.47;;;;;;;8.97;70.89;100415.56;4907606;29;20058;-90
2022/10/27 03:50:08;;;;;;;10.77;4.38;;;;;;;8.90;70.57;100429.94;4920726;29;20036;-90
2022/10/27 03:52:33;;;;;;;12.90;6.78;;;;;;;8.82;71.22;100440.16;4932582;29;20039;-90
2022/10/27 03:54:59;;;;;;;8.50;4.68;;;;;;;8.73;71.14;100426.25;4916063;29;20035;-90
2022/10/27 03:57:24;;;;;;;10.55;4.30;;;;;;;8.65;70.71;100410.47;4905172;29;20504;-90
2022/10/27 03:59:50;;;;;;;10.27;4.45;;;;;;;8.69;71.30;100427.75;4908789;29;20051;-90
2022/10/27 04:02:16;;;;;;;7.50;4.30;;;;;;;8.61;71.58;100434.31;4905647;29;20549;-92
2022/10/27 04:04:42;;;;;;;9.40;4.68;;;;;;;8.73;71.03;100433.50;4922765;29;20058;-93
2022/10/27 04:07:08;;;;;;;10.27;4.38;;;;;;;8.81;71.29;100431.28;4890843;29;20047;-91
2022/10/27 04:09:33;;;;;;;13.07;4.93;;;;;;;8.75;71.17;100434.91;4905695;29;20027;-91
2022/10/27 04:11:59;;;;;;;6.95;4.35;;;;;;;8.73;71.12;100444.25;4909440;29;20030;-95
2022/10/27 04:14:24;;;;;;;10.15;3.53;;;;;;;8.64;71.56;100427.66;4910344;29;20023;-92
2022/10/27 04:16:50;;;;;;;10.65;4.38;;;;;;;8.70;71.66;100434.78;4903478;29;20031;-91
2022/10/27 04:19:21;;;;;;;14.65;4.97;;;;;;;8.80;71.07;100455.69;4910420;29;20043;-91
2022/10/27 04:21:47;;;;;;;9.68;5.30;;;;;;;8.74;70.89;100427.09;4907062;29;20035;-95
2022/10/27 04:24:12;;;;;;;12.15;4.78;;;;;;;8.63;70.95;100428.69;4907224;29;20455;-92
2022/10/27 04:26:38;;;;;;;10.75;5.25;;;;;;;8.74;71.00;100443.22;4923140;29;20507;-93
2022/10/27 04:29:04;;;;;;;10.98;4.07;;;;;;;8.58;70.65;100429.38;4924104;29;20043;-92
2022/10/27 04:31:29;;;;;;;10.32;4.15;;;;;;;8.58;71.25;100452.72;4922671;29;20593;-92
2022/10/27 04:33:55;;;;;;;12.80;6.35;;;;;;;8.44;71.28;100434.09;4907442;29;20031;-93
2022/10/27 04:36:20;;;;;;;10.27;4.38;;;;;;;8.44;71.31;100444.03;4907460;29;20042;-92
2022/10/27 04:38:49;;;;;;;9.48;4.10;;;;;;;8.41;71.75;100449.88;4922509;29;20052;-92
2022/10/27 04:41:14;;;;;;;7.22;4.38;;;;;;;8.44;71.30;100455.56;4913971;29;20027;-92
2022/10/27 04:43:40;;;;;;;16.60;4.78;;;;;;;8.36;71.53;100445.13;4914260;29;20514;-92
2022/10/27 04:46:05;;;;;;;12.98;3.97;;;;;;;8.43;71.40;100448.59;4911931;29;20035;-92
2022/10/27 04:48:31;;;;;;;10.43;3.92;;;;;;;8.46;71.46;100477.63;4906283;29;20031;-92
2022/10/27 04:50:56;;;;;;;7.70;4.30;;;;;;;8.35;71.82;100456.91;4906540;29;20035;-94
2022/10/27 04:53:22;;;;;;;15.45;5.40;;;;;;;8.36;71.97;100460.41;4893109;29;20171;-92
2022/10/27 04:55:49;;;;;;;15.73;5.72;;;;;;;8.29;71.87;100461.31;4891540;29;20035;-93
2022/10/27 04:58:14;;;;;;;12.75;6.65;;;;;;;8.24;71.89;100458.50;4890576;29;20114;-92
2022/10/27 05:00:41;;;;;;;9.18;4.55;;;;;;;8.18;72.24;100472.00;4890840;29;20055;-92
2022/10/27 05:03:07;;;;;;;10.15;4.65;;;;;;;8.20;72.02;100475.28;4906063;29;20164;-92
2022/10/27 05:05:32;;;;;;;9.70;4.88;;;;;;;8.19;72.21;100485.19;4890132;29;20062;-93
2022/10/27 05:08:00;;;;;;;8.57;5.10;;;;;;;8.20;72.05;100484.16;4889842;29;20562;-93
2022/10/27 05:10:25;;;;;;;18.40;7.60;;;;;;;8.13;72.30;100467.31;4897657;29;20035;-91
2022/10/27 05:12:51;;;;;;;22.02;8.05;;;;;;;8.15;72.25;100489.34;4905054;29;20027;-92
2022/10/27 05:15:17;;;;;;;15.82;5.90;;;;;;;8.32;72.07;100494.13;4931211;29;20043;-92
2022/10/27 05:17:42;;;;;;;20.67;6.20;;;;;;;8.29;72.05;100490.84;4913635;29;20474;-91
2022/10/27 05:20:08;;;;;;;15.95;4.65;;;;;;;8.43;71.66;100509.50;4906580;29;20031;-94
2022/10/27 05:22:36;;;;;;;13.30;5.50;;;;;;;8.37;71.64;100495.09;4938750;29;20118;-90
2022/10/27 05:25:14;;;;;;;162.98;18.92;;;;;;;8.28;72.08;100483.03;4891804;29;20039;-96
2022/10/27 05:27:39;;;;;;;17.15;5.43;;;;;;;8.47;71.98;100502.63;4921886;29;20478;-95
2022/10/27 05:30:19;;;;;;;10.68;5.50;;;;;;;8.64;71.60;100522.44;4908579;29;20036;-96
2022/10/27 05:32:45;;;;;;;19.23;6.18;;;;;;;8.58;71.17;100503.72;4919460;29;20031;-96
2022/10/27 05:35:11;;;;;;;10.75;5.10;;;;;;;8.43;71.35;100488.84;4905103;29;20039;-94
2022/10/27 05:37:39;;;;;;;9.90;5.13;;;;;;;8.56;71.30;100498.59;4907160;29;20475;-95
2022/10/27 05:40:37;;;;;;;11.25;6.20;;;;;;;8.63;71.26;100504.69;4922751;29;20027;-96
2022/10/27 05:43:11;;;;;;;16.50;6.15;;;;;;;8.80;71.14;100528.19;4913927;29;20040;-96
2022/10/27 05:45:46;;;;;;;12.63;5.72;;;;;;;8.84;70.95;100518.63;4920159;29;20495;-96
2022/10/27 05:48:22;;;;;;;14.63;6.57;;;;;;;8.80;70.82;100515.59;4916179;29;20050;-96
2022/10/27 05:50:57;;;;;;;14.75;6.63;;;;;;;9.05;70.50;100533.44;4915212;29;20087;-91
2022/10/27 05:53:23;;;;;;;13.10;6.90;;;;;;;8.97;70.94;100515.78;4909711;29;20023;-92
2022/10/27 05:55:51;;;;;;;14.65;8.50;;;;;;;9.25;70.55;100546.56;4928868;29;20043;-92
2022/10/27 05:58:17;;;;;;;10.90;5.45;;;;;;;9.36;70.15;100539.56;4900724;29;20123;-93
2022/10/27 06:00:46;;;;;;;13.93;5.93;;;;;;;9.38;69.91;100526.69;4917918;29;20055;-93
2022/10/27 06:03:37;;;;;;;17.25;5.68;;;;;;;9.68;69.15;100550.81;4921455;29;20035;-91
2022/10/27 06:06:03;;;;;;;18.13;4.53;;;;;;;9.62;68.51;100528.38;4952368;29;20043;-91
2022/10/27 06:08:37;;;;;;;11.38;4.35;;;;;;;9.70;68.49;100529.88;4952573;29;20069;-95
2022/10/27 06:11:03;;;;;;;11.05;5.72;;;;;;;9.91;67.40;100556.19;4900743;29;20126;-92
2022/10/27 06:13:29;;;;;;;9.52;4.55;;;;;;;9.79;67.42;100533.03;4889398;29;20032;-92
2022/10/27 06:15:57;;;;;;;10.02;5.47;;;;;;;9.84;67.12;100539.38;4884928;29;20438;-93
2022/10/27 06:18:22;;;;;;;11.88;4.90;;;;;;;10.03;67.56;100566.94;4902325;29;20063;-94
2022/10/27 06:20:48;;;;;;;7.65;4.18;;;;;;;10.07;67.02;100553.84;4885017;29;20044;-93
2022/10/27 06:23:13;;;;;;;8.00;4.25;;;;;;;10.00;66.80;100556.69;4885252;29;20162;-92
2022/10/27 06:25:41;;;;;;;8.38;4.47;;;;;;;10.16;66.88;100571.25;4884574;29;20040;-93
2022/10/27 06:28:07;;;;;;;11.85;4.55;;;;;;;10.17;66.88;100578.31;4884312;29;20032;-91
2022/10/27 06:30:33;;;;;;;7.75;3.90;;;;;;;10.18;66.32;100563.78;4899779;29;20759;-91
2022/10/27 06:32:58;;;;;;;20.92;6.18;;;;;;;10.33;65.63;100566.00;4884141;29;20427;-91
2022/10/27 06:35:24;;;;;;;40.72;9.27;;;;;;;10.46;65.46;100562.25;4900163;29;20039;-92
2022/10/27 06:37:49;;;;;;;25.83;5.88;;;;;;;10.69;65.19;100593.69;4899288;29;20044;-96
2022/10/27 06:40:18;;;;;;;11.82;3.75;;;;;;;10.58;64.26;100571.09;4873607;29;20537;-96
2022/10/27 06:42:53;;;;;;;;;;;;;;;;;;;;;
2022/10/27 06:46:16;;;;;;;15.85;6.90;;;;;;;10.97;63.26;100594.75;4919155;29;20103;-96
2022/10/27 06:48:45;;;;;;;10.40;4.07;;;;;;;10.91;62.88;100573.09;4875160;29;20033;-95
2022/10/27 06:51:14;;;;;;;7.50;3.15;;;;;;;10.98;62.52;100577.50;4871825;29;20036;-96
2022/10/27 06:53:39;;;;;;;7.15;3.80;;;;;;;11.09;62.49;100569.38;4904532;29;20044;-96
2022/10/27 06:56:21;;;;;;;6.45;3.45;;;;;;;11.21;62.77;100582.78;4920523;29;20038;-96
2022/10/27 06:58:47;;;;;;;6.17;2.73;;;;;;;11.39;61.55;100570.13;4922915;29;20407;-93
2022/10/27 07:01:12;;;;;;;11.88;3.88;;;;;;;11.40;61.51;100564.50;4921049;29;20130;-95
2022/10/27 07:03:38;;;;;;;8.15;3.45;;;;;;;11.69;60.79;100581.44;4899202;29;20039;-94
2022/10/27 07:06:06;;;;;;;6.68;2.97;;;;;;;11.61;60.92;100554.03;4927950;29;20034;-96
2022/10/27 07:08:32;;;;;;;10.07;6.05;;;;;;;11.85;60.14;100576.25;4955103;23;20051;-96
2022/10/27 07:10:58;;;;;;;14.93;5.28;;;;;;;11.98;59.72;100562.47;4931113;29;20413;-94
2022/10/27 07:13:26;;;;;;;13.63;4.03;;;;;;;11.96;59.96;100561.88;4916932;29;20099;-96
2022/10/27 07:16:02;;;;;;;7.95;3.58;;;;;;;12.22;59.71;100571.16;4926433;29;20029;-96
2022/10/27 07:18:27;;;;;;;4.20;2.92;;;;;;;12.50;58.56;100591.78;4913303;29;20039;-92
2022/10/27 07:21:12;;;;;;;25.30;15.65;;;;;;;12.58;58.31;100568.91;4932385;29;20031;-95
2022/10/27 07:23:41;;;;;;;12.00;6.82;;;;;;;12.76;58.78;100591.25;4909103;29;20035;-92
2022/10/27 07:26:07;;;;;;;6.07;4.22;;;;;;;12.82;57.93;100577.53;4909384;29;20039;-92
2022/10/27 07:28:32;;;;;;;5.28;3.03;;;;;;;13.02;56.48;100598.56;4912801;29;20060;-93
2022/10/27 07:30:58;;;;;;;4.97;2.95;;;;;;;13.10;56.56;100581.09;4930210;29;20041;-93
2022/10/27 07:33:24;;;;;;;7.80;3.35;;;;;;;13.20;56.59;100574.94;4918740;29;20035;-92
2022/10/27 07:35:50;;;;;;;12.27;6.05;;;;;;;13.34;56.11;100579.72;4917237;29;20483;-92
2022/10/27 07:38:16;;;;;;;6.47;3.78;;;;;;;13.44;55.91;100573.56;4913179;29;20389;-92
2022/10/27 07:40:42;;;;;;;7.40;4.45;;;;;;;13.79;55.80;100604.72;4937148;29;20035;-94
2022/10/27 07:43:08;;;;;;;6.85;3.47;;;;;;;13.81;55.11;100580.09;4935437;29;20103;-94
2022/10/27 07:45:47;;;;;;;32.72;15.43;;;;;;;13.91;54.61;100583.69;4918522;29;20106;-94
2022/10/27 07:48:13;;;;;;;7.70;4.45;;;;;;;14.01;54.22;100585.66;4933074;29;20039;-95
2022/10/27 07:50:39;;;;;;;17.20;8.48;;;;;;;14.15;53.91;100585.97;4912844;29;20054;-92
2022/10/27 07:53:05;;;;;;;11.60;4.97;;;;;;;14.25;53.44;100577.09;4932193;29;20493;-92
2022/10/27 07:55:34;;;;;;;6.05;3.20;;;;;;;14.28;53.61;100577.41;4936023;29;20054;-91
2022/10/27 07:58:06;;;;;;;6.18;3.60;;;;;;;14.43;53.16;100583.97;4938341;29;20039;-94
2022/10/27 08:00:33;;;;;;;8.93;2.95;;;;;;;14.69;52.90;100609.28;4910484;29;20028;-95
2022/10/27 08:03:28;;;;;;;9.63;3.63;;;;;;;14.62;52.81;100576.22;4920598;29;20058;-96
2022/10/27 08:06:06;;;;;;;5.43;3.28;;;;;;;14.72;52.41;100576.25;4902715;29;20046;-96
2022/10/27 08:08:34;;;;;;;5.80;3.45;;;;;;;14.83;52.26;100585.22;4931314;29;20051;-96
2022/10/27 08:11:39;;;;;;;5.40;3.20;;;;;;;15.11;52.18;100603.75;4937461;29;20110;-96
2022/10/27 08:14:31;;;;;;;8.18;2.80;;;;;;;15.09;51.43;100591.53;4944376;29;20040;-96
2022/10/27 08:20:41;;;;;;;4.28;2.28;;;;;;;15.07;49.67;100572.81;4935979;28;20063;-96
2022/10/27 08:23:56;;;;;;;15.85;7.95;;;;;;;15.43;49.86;100596.47;4926270;29;20055;-94
2022/10/27 08:26:25;;;;;;;4.75;2.97;;;;;;;15.39;49.89;100574.47;4936827;29;20051;-94
2022/10/27 08:28:50;;;;;;;4.05;2.47;;;;;;;15.47;49.74;100575.84;4898260;29;20067;-93
2022/10/27 08:31:18;;;;;;;12.85;4.82;;;;;;;15.57;49.43;100573.13;4923682;29;20130;-91
2022/10/27 08:33:50;;;;;;;7.05;5.03;;;;;;;15.70;49.22;100583.41;4913038;29;20024;-96
2022/10/27 08:36:19;;;;;;;6.80;3.33;;;;;;;15.83;49.30;100582.06;4917639;29;20047;-95
2022/10/27 08:38:50;;;;;;;5.45;2.55;;;;;;;15.87;48.66;100571.47;4919870;29;20036;-96
2022/10/27 08:41:42;;;;;;;4.97;2.97;;;;;;;15.91;49.09;100562.50;4920996;29;20035;-96
2022/10/27 08:44:44;;;;;;;8.20;3.40;;;;;;;16.21;48.60;100598.84;4927852;29;20043;-96
2022/10/27 08:47:14;;;;;;;7.22;2.78;;;;;;;16.32;49.55;100594.19;4926850;29;20279;-96
2022/10/27 08:49:50;;;;;;;7.43;3.10;;;;;;;16.26;49.09;100574.38;4897204;29;20039;-95
2022/10/27 08:52:37;;;;;;;7.93;3.03;;;;;;;16.45;48.91;100588.16;4916225;29;20031;-94
2022/10/27 08:55:24;;;;;;;8.38;2.75;;;;;;;16.47;48.23;100577.81;4930848;29;20070;-96
2022/10/27 08:58:16;;;;;;;5.28;2.40;;;;;;;16.52;48.01;100563.44;4914859;29;20051;-96
2022/10/27 09:01:08;;;;;;;;;;;;;;;;;;;;;
2022/10/27 09:04:01;;;;;;;3.85;2.60;;;;;;;16.87;47.86;100594.25;4934788;29;19983;-96
2022/10/27 09:07:05;;;;;;;5.22;3.00;;;;;;;17.01;47.35;100592.56;4930800;29;20055;-96
2022/10/27 09:17:08;;;;;;;7.18;3.03;;;;;;;17.28;46.72;100578.50;4950533;29;20071;-96
2022/10/27 09:22:54;;;;;;;3.75;2.40;;;;;;;17.54;45.91;100576.38;4853968;29;20061;-93
2022/10/27 09:25:20;;;;;;;7.15;2.45;;;;;;;17.51;45.01;100559.81;4923454;29;20111;-92
2022/10/27 09:27:51;;;;;;;5.15;2.47;;;;;;;17.68;45.03;100570.28;4907752;29;20051;-92
2022/10/27 09:30:23;;;;;;;4.45;2.33;;;;;;;17.83;44.75;100570.16;4902830;29;20055;-93
2022/10/27 09:32:53;;;;;;;3.00;2.10;;;;;;;17.89;44.13;100563.56;4911295;29;20397;-96
2022/10/27 09:35:28;;;;;;;6.22;2.10;;;;;;;17.96;44.38;100569.47;4940393;29;20031;-95
2022/10/27 09:38:08;;;;;;;4.50;2.50;;;;;;;18.05;43.93;100571.56;4941829;29;20091;-96
2022/10/27 09:41:06;;;;;;;6.38;3.08;;;;;;;18.11;43.71;100564.97;4937124;29;20086;-95
2022/10/27 09:49:46;;;;;;;4.15;2.58;;;;;;;18.31;43.03;100551.13;4942710;29;20482;-95
2022/10/27 09:52:52;;;;;;;3.35;1.95;;;;;;;18.35;42.71;100543.97;4900511;29;20036;-96
2022/10/27 09:55:53;;;;;;;3.05;1.90;;;;;;;18.61;42.54;100575.56;4839570;29;20025;-96
2022/10/27 09:58:19;;;;;;;3.72;1.80;;;;;;;18.46;42.33;100550.09;4855878;29;20025;-96
2022/10/27 10:00:54;;;;;;;3.85;2.15;;;;;;;18.50;42.80;100544.88;4838690;29;20046;-96
2022/10/27 10:04:07;;;;;;;3.17;1.98;;;;;;;18.74;42.38;100569.41;4865087;29;20065;-95
2022/10/27 10:06:52;;;;;;;3.15;1.85;;;;;;;18.65;41.84;100546.59;4853461;29;20053;-95
2022/10/27 10:13:40;;;;;;;4.63;1.73;;;;;;;18.92;40.39;100568.59;4818056;29;20075;-96
2022/10/27 10:16:47;;;;;;;3.15;1.42;;;;;;;18.76;40.01;100537.19;4834060;29;20038;-96
2022/10/27 10:19:17;;;;;;;4.15;1.40;;;;;;;18.95;39.81;100557.13;4859701;29;20050;-95
2022/10/27 10:22:12;;;;;;;2.65;1.20;;;;;;;18.86;38.99;100530.78;4859953;29;20416;-96
2022/10/27 10:25:28;;;;;;;3.22;2.03;;;;;;;18.95;40.06;100551.66;4824011;29;20059;-96
2022/10/27 10:28:04;;;;;;;3.60;2.35;;;;;;;18.91;39.98;100526.06;4837083;29;20053;-96
2022/10/27 10:30:46;;;;;;;3.35;1.67;;;;;;;18.93;39.96;100536.69;4841969;29;20065;-96
2022/10/27 10:33:41;;;;;;;2.92;1.80;;;;;;;19.05;39.54;100533.50;4844809;29;20054;-95
2022/10/27 10:39:28;;;;;;;3.53;1.55;;;;;;;19.08;39.19;100527.44;4936808;28;20047;-94
2022/10/27 10:44:44;;;;;;;2.83;1.52;;;;;;;19.17;39.33;100540.13;4925618;29;20056;-96
2022/10/27 10:47:37;;;;;;;2.20;1.50;;;;;;;19.11;39.68;100529.56;4894484;29;20043;-95
2022/10/27 10:50:03;;;;;;;3.55;1.27;;;;;;;19.13;39.66;100519.16;4897193;29;20032;-96
2022/10/27 10:52:36;;;;;;;2.17;1.30;;;;;;;19.21;39.40;100529.41;4881213;29;20475;-93
2022/10/27 10:55:20;;;;;;;4.45;1.67;;;;;;;19.34;39.62;100545.06;4886985;29;20554;-92
2022/10/27 10:57:47;;;;;;;8.70;2.22;;;;;;;19.28;39.63;100527.13;4885945;29;20060;-92
2022/10/27 11:00:21;;;;;;;2.88;1.70;;;;;;;19.26;39.82;100523.88;4885174;29;20483;-95
2022/10/27 11:03:17;;;;;;;2.63;1.50;;;;;;;19.33;39.62;100516.09;4895368;29;20028;-95
2022/10/27 11:06:03;;;;;;;2.47;1.60;;;;;;;19.38;39.31;100512.47;4873505;29;20031;-95
2022/10/27 11:08:34;;;;;;;2.63;1.27;;;;;;;19.57;38.64;100534.28;4901720;29;20111;-96
2022/10/27 11:11:12;;;;;;;2.45;1.70;;;;;;;19.62;38.76;100523.25;4886624;29;20024;-94
2022/10/27 11:13:55;;;;;;;2.13;1.60;;;;;;;19.55;38.85;100515.47;4905051;29;20035;-95
2022/10/27 11:16:48;;;;;;;2.75;1.50;;;;;;;19.61;39.10;100509.91;4887256;29;20032;-96
2022/10/27 11:20:18;;;;;;;7.45;4.25;;;;;;;19.65;38.55;100505.44;4878043;29;20045;-95
2022/10/27 11:22:48;;;;;;;5.55;1.92;;;;;;;19.67;38.55;100503.22;4839308;29;20073;-95
2022/10/27 11:25:25;;;;;;;3.80;1.42;;;;;;;19.77;38.33;100519.47;4846090;29;20533;-96
2022/10/27 11:28:15;;;;;;;3.97;1.77;;;;;;;19.77;38.06;100505.81;4847357;29;20061;-96
2022/10/27 11:30:56;;;;;;;3.67;1.80;;;;;;;19.81;38.50;100500.53;4844980;29;20049;-94
2022/10/27 11:33:43;;;;;;;2.63;1.70;;;;;;;19.78;38.65;100488.31;4834897;29;20041;-96
2022/10/27 11:39:31;;;;;;;3.38;2.17;;;;;;;19.78;39.06;100494.56;4821956;29;20034;-96
2022/10/27 11:42:15;;;;;;;2.72;1.73;;;;;;;19.84;39.15;100497.19;4840503;29;20070;-92
2022/10/27 11:44:51;;;;;;;6.00;2.42;;;;;;;19.80;39.22;100505.22;4826495;29;20137;-94
2022/10/27 11:47:35;;;;;;;5.60;1.70;;;;;;;19.83;38.45;100493.66;4854917;29;20089;-96
2022/10/27 11:50:31;;;;;;;3.42;1.80;;;;;;;19.90;38.48;100499.56;4879079;29;20036;-96
2022/10/27 11:53:16;;;;;;;7.68;1.70;;;;;;;19.89;38.32;100488.91;4884926;29;20043;-96
2022/10/27 11:56:05;;;;;;;1.80;1.30;;;;;;;19.95;38.09;100491.22;4861905;29;20595;-94
2022/10/27 11:59:08;;;;;;;3.75;2.05;;;;;;;19.96;38.88;100501.06;4876556;29;20048;-96
2022/10/27 12:01:49;;;;;;;4.57;2.10;;;;;;;19.98;39.01;100498.00;4876459;29;20040;-96
2022/10/27 12:04:44;;;;;;;2.53;1.63;;;;;;;19.99;38.40;100496.91;4871902;29;20031;-94
2022/10/27 12:27:16;;;;;;;3.55;1.80;;;;;;;20.02;38.04;100468.16;4883984;29;20064;-93
2022/10/27 12:30:20;;;;;;;;;;;;;;;;;;;;;
2022/10/27 12:33:14;;;;;;;8.00;2.17;;;;;;;20.12;38.07;100489.81;4870993;29;20044;-93
2022/10/27 12:36:13;;;;;;;4.82;2.22;;;;;;;20.10;38.38;100490.09;4877793;29;20157;-92
2022/10/27 12:39:02;;;;;;;4.15;2.20;;;;;;;20.04;38.40;100474.13;4925368;29;20043;-94
2022/10/27 12:41:34;;;;;;;4.40;1.65;;;;;;;19.90;38.26;100460.44;4929101;29;20035;-92
2022/10/27 12:44:37;;;;;;;3.92;2.00;;;;;;;20.12;38.25;100484.34;4913183;29;20115;-92
2022/10/27 12:47:23;;;;;;;2.92;1.70;;;;;;;19.98;38.37;100465.19;4939807;29;20035;-93
2022/10/27 12:50:29;;;;;;;3.20;1.50;;;;;;;20.12;38.02;100493.34;4922529;29;20043;-91
2022/10/27 12:53:03;;;;;;;3.25;1.60;;;;;;;20.03;38.15;100465.13;4931315;29;20032;-95
2022/10/27 12:55:32;;;;;;;4.30;1.80;;;;;;;20.10;37.95;100475.63;4915395;29;20027;-92